createdAt,value
2023-05-13T00:00:27.639Z,0.90
2023-05-13T00:02:55.652Z,1.00
2023-05-13T00:05:24.950Z,1.00
2023-05-13T00:07:52.798Z,1.10
2023-05-13T00:10:21.429Z,1.03
2023-05-13T00:12:49.634Z,1.00
2023-05-13T00:15:17.461Z,0.87
2023-05-13T00:17:45.394Z,1.10
2023-05-13T00:20:13.351Z,0.93
2023-05-13T00:22:42.557Z,1.10
2023-05-13T00:25:10.923Z,1.20
2023-05-13T00:27:38.926Z,1.00
2023-05-13T00:30:08.202Z,0.93
2023-05-13T00:32:36.338Z,0.90
2023-05-13T00:35:04.421Z,0.90
2023-05-13T00:37:32.310Z,1.10
2023-05-13T00:40:01.490Z,1.17
2023-05-13T00:42:29.382Z,1.20
2023-05-13T00:44:57.281Z,1.23
2023-05-13T00:47:25.258Z,1.33
2023-05-13T00:49:53.359Z,1.00
2023-05-13T00:52:21.336Z,1.00
2023-05-13T00:54:49.185Z,1.00
2023-05-13T00:57:18.456Z,0.90
2023-05-13T00:59:46.306Z,1.03
2023-05-13T01:02:28.589Z,1.23
2023-05-13T01:05:04.425Z,0.97
2023-05-13T01:07:39.855Z,1.10
2023-05-13T01:10:14.837Z,1.43
2023-05-13T01:12:46.262Z,1.00
2023-05-13T01:15:17.058Z,1.10
2023-05-13T01:17:51.517Z,1.20
2023-05-13T01:20:23.521Z,1.20
2023-05-13T01:22:53.346Z,1.07
2023-05-13T01:25:21.321Z,1.17
2023-05-13T01:27:49.257Z,1.30
2023-05-13T01:30:17.941Z,1.00
2023-05-13T01:32:46.519Z,0.90
2023-05-13T01:35:21.609Z,1.10
2023-05-13T01:37:51.304Z,1.00
2023-05-13T01:40:31.832Z,1.00
2023-05-13T01:43:00.995Z,0.93
2023-05-13T01:45:29.704Z,1.27
2023-05-13T01:47:57.628Z,1.00
2023-05-13T01:50:26.262Z,0.90
2023-05-13T01:52:54.195Z,1.20
2023-05-13T01:55:23.427Z,1.00
2023-05-13T01:57:51.249Z,1.00
2023-05-13T02:00:19.790Z,0.90
2023-05-13T02:02:48.139Z,1.17
2023-05-13T02:05:16.807Z,0.97
2023-05-13T02:07:44.804Z,1.00
2023-05-13T02:10:13.069Z,0.87
2023-05-13T02:12:42.260Z,1.30
2023-05-13T02:15:11.228Z,1.13
2023-05-13T02:17:40.194Z,0.87
2023-05-13T02:20:09.393Z,0.90
2023-05-13T02:22:37.269Z,1.53
2023-05-13T02:25:05.374Z,1.20
2023-05-13T02:27:33.196Z,1.00
2023-05-13T02:30:02.430Z,1.00
2023-05-13T02:32:30.375Z,0.90
2023-05-13T02:34:58.337Z,1.33
2023-05-13T02:37:26.681Z,1.33
2023-05-13T02:39:54.547Z,1.07
2023-05-13T02:42:22.391Z,1.03
2023-05-13T02:44:50.413Z,1.10
2023-05-13T02:47:19.621Z,1.30
2023-05-13T02:49:47.445Z,1.40
2023-05-13T02:52:15.567Z,1.10
2023-05-13T02:54:43.454Z,1.10
2023-05-13T02:57:11.324Z,1.17
2023-05-13T02:59:39.156Z,1.00
2023-05-13T03:02:07.153Z,0.90
2023-05-13T03:04:36.388Z,1.13
2023-05-13T03:07:04.271Z,1.00
2023-05-13T03:09:32.100Z,1.40
2023-05-13T03:11:59.993Z,1.27
2023-05-13T03:14:28.015Z,1.10
2023-05-13T03:16:55.935Z,1.07
2023-05-13T03:19:24.902Z,1.00
2023-05-13T03:21:54.117Z,1.00
2023-05-13T03:24:21.988Z,1.00
2023-05-13T03:26:50.674Z,1.07
2023-05-13T03:29:18.532Z,1.00
2023-05-13T03:31:46.827Z,1.10
2023-05-13T03:34:14.705Z,1.20
2023-05-13T03:36:42.839Z,1.13
2023-05-13T03:39:12.068Z,1.10
2023-05-13T03:41:39.960Z,1.20
2023-05-13T03:44:07.763Z,1.20
2023-05-13T03:46:35.702Z,1.20
2023-05-13T03:49:03.832Z,0.90
2023-05-13T03:51:33.010Z,1.10
2023-05-13T03:54:00.923Z,1.10
2023-05-13T03:56:30.285Z,1.20
2023-05-13T03:58:58.321Z,1.50
2023-05-13T04:01:26.159Z,1.10
2023-05-13T04:03:54.025Z,1.00
2023-05-13T04:06:21.991Z,0.93
2023-05-13T04:08:50.256Z,0.90
2023-05-13T04:11:18.153Z,1.10
2023-05-13T04:13:47.346Z,1.00
2023-05-13T04:16:15.478Z,1.13
2023-05-13T04:18:43.385Z,0.90
2023-05-13T04:21:11.534Z,1.20
2023-05-13T04:23:39.372Z,1.20
2023-05-13T04:26:07.322Z,1.03
2023-05-13T04:28:36.171Z,1.27
2023-05-13T04:31:06.028Z,1.03
2023-05-13T04:33:34.115Z,1.10
2023-05-13T04:36:02.099Z,0.97
2023-05-13T04:38:29.941Z,1.30
2023-05-13T04:40:57.805Z,1.20
2023-05-13T04:43:25.759Z,0.90
2023-05-13T04:45:53.711Z,1.10
2023-05-13T04:48:23.191Z,1.20
2023-05-13T04:50:52.422Z,1.00
2023-05-13T04:53:20.802Z,1.37
2023-05-13T04:55:50.056Z,1.20
2023-05-13T04:58:17.978Z,0.80
2023-05-13T05:00:45.908Z,1.10
2023-05-13T05:03:14.360Z,0.90
2023-05-13T05:05:43.555Z,1.00
2023-05-13T05:08:11.462Z,1.10
2023-05-13T05:10:39.432Z,1.03
2023-05-13T05:13:07.366Z,1.27
2023-05-13T05:15:35.345Z,1.10
2023-05-13T05:18:03.325Z,0.90
2023-05-13T05:20:31.377Z,1.30
2023-05-13T05:23:00.695Z,1.30
2023-05-13T05:25:28.565Z,0.93
2023-05-13T05:27:56.873Z,1.10
2023-05-13T05:30:24.901Z,1.10
2023-05-13T05:32:52.942Z,1.00
2023-05-13T05:35:20.848Z,1.00
2023-05-13T05:37:48.930Z,1.20
2023-05-13T05:40:18.262Z,1.20
2023-05-13T05:42:46.078Z,1.30
2023-05-13T05:45:13.950Z,1.10
2023-05-13T05:47:41.990Z,0.97
2023-05-13T05:50:10.526Z,1.30
2023-05-13T05:52:38.346Z,1.03
2023-05-13T05:55:07.327Z,0.87
2023-05-13T05:57:36.603Z,1.23
2023-05-13T06:00:05.280Z,1.53
2023-05-13T06:02:33.230Z,1.20
2023-05-13T06:05:01.272Z,1.20
2023-05-13T06:07:29.341Z,0.90
2023-05-13T06:09:57.263Z,1.50
2023-05-13T06:12:25.253Z,1.20
2023-05-13T06:14:54.471Z,1.20
2023-05-13T06:17:22.328Z,1.33
2023-05-13T06:19:50.389Z,1.50
2023-05-13T06:22:18.370Z,1.20
2023-05-13T06:24:46.189Z,1.17
2023-05-13T06:27:15.603Z,1.30
2023-05-13T06:29:43.433Z,1.10
2023-05-13T06:32:12.676Z,0.93
2023-05-13T06:34:42.391Z,1.30
2023-05-13T06:37:10.262Z,1.30
2023-05-13T06:39:39.106Z,1.27
2023-05-13T06:42:07.365Z,1.30
2023-05-13T06:44:35.197Z,1.27
2023-05-13T06:47:05.004Z,1.10
2023-05-13T06:49:34.878Z,1.37
2023-05-13T06:52:02.841Z,1.20
2023-05-13T06:54:30.656Z,1.10
2023-05-13T06:56:58.476Z,1.10
2023-05-13T06:59:26.389Z,1.10
2023-05-13T07:01:54.230Z,1.33
2023-05-13T07:04:22.059Z,1.40
2023-05-13T07:06:51.731Z,1.00
2023-05-13T07:09:19.629Z,1.20
2023-05-13T07:11:47.501Z,1.20
2023-05-13T07:14:15.416Z,1.20
2023-05-13T07:16:43.356Z,1.33
2023-05-13T07:19:11.242Z,1.50
2023-05-13T07:21:39.431Z,1.00
2023-05-13T07:24:09.446Z,1.10
2023-05-13T07:26:37.303Z,1.30
2023-05-13T07:29:05.213Z,1.30
2023-05-13T07:31:35.768Z,1.00
2023-05-13T07:34:03.758Z,1.13
2023-05-13T07:36:31.774Z,1.20
2023-05-13T07:38:59.630Z,1.30
2023-05-13T07:41:28.824Z,1.10
2023-05-13T07:43:57.201Z,1.20
2023-05-13T07:46:25.124Z,1.50
2023-05-13T07:48:53.006Z,1.30
2023-05-13T07:51:20.928Z,1.37
2023-05-13T07:53:49.011Z,1.30
2023-05-13T07:56:16.843Z,1.30
2023-05-13T07:58:46.067Z,1.33
2023-05-13T08:01:13.956Z,1.60
2023-05-13T08:03:41.868Z,0.97
2023-05-13T08:06:09.932Z,1.10
2023-05-13T08:08:37.807Z,1.20
2023-05-13T08:11:05.945Z,1.40
2023-05-13T08:13:33.782Z,1.20
2023-05-13T08:16:03.375Z,1.20
2023-05-13T08:18:31.670Z,1.00
2023-05-13T08:20:59.586Z,1.10
2023-05-13T08:23:43.434Z,1.20
2023-05-13T08:26:13.080Z,1.23
2023-05-13T08:28:42.612Z,1.30
2023-05-13T08:31:13.042Z,1.40
2023-05-13T08:33:41.785Z,1.00
2023-05-13T08:36:10.647Z,1.17
2023-05-13T08:38:38.622Z,1.40
2023-05-13T08:41:06.706Z,1.07
2023-05-13T08:43:34.779Z,1.37
2023-05-13T08:46:04.759Z,1.23
2023-05-13T08:48:34.930Z,1.10
2023-05-13T08:51:03.109Z,1.27
2023-05-13T08:53:31.914Z,1.30
2023-05-13T08:56:00.463Z,1.13
2023-05-13T08:58:28.743Z,1.60
2023-05-13T09:00:57.744Z,1.20
2023-05-13T09:03:28.221Z,1.50
2023-05-13T09:05:57.424Z,1.30
2023-05-13T09:08:25.389Z,1.50
2023-05-13T09:10:53.918Z,1.03
2023-05-13T09:13:23.083Z,1.60
2023-05-13T09:15:52.455Z,1.53
2023-05-13T09:18:20.572Z,1.10
2023-05-13T09:20:48.491Z,1.00
2023-05-13T09:23:19.367Z,1.33
2023-05-13T09:25:47.234Z,1.43
2023-05-13T09:28:16.213Z,1.60
2023-05-13T09:30:46.766Z,1.10
2023-05-13T09:33:16.746Z,1.77
2023-05-13T09:35:46.535Z,1.00
2023-05-13T09:38:17.675Z,1.27
2023-05-13T09:40:52.692Z,1.50
2023-05-13T09:43:21.963Z,1.40
2023-05-13T09:45:54.218Z,1.20
2023-05-13T09:48:22.706Z,1.00
2023-05-13T09:50:52.286Z,1.10
2023-05-13T09:53:21.702Z,1.60
2023-05-13T09:55:50.894Z,0.93
2023-05-13T09:58:20.318Z,1.73
2023-05-13T10:00:49.266Z,1.13
2023-05-13T10:03:17.479Z,0.93
2023-05-13T10:05:45.817Z,1.10
2023-05-13T10:08:14.969Z,1.10
2023-05-13T10:10:45.896Z,1.20
2023-05-13T10:13:16.040Z,1.00
2023-05-13T10:15:49.991Z,1.37
2023-05-13T10:18:18.746Z,1.37
2023-05-13T10:20:47.198Z,1.20
2023-05-13T10:23:16.603Z,1.30
2023-05-13T10:25:48.067Z,1.20
2023-05-13T10:28:16.625Z,1.53
2023-05-13T10:30:45.446Z,1.30
2023-05-13T10:33:13.736Z,1.80
2023-05-13T10:35:47.613Z,1.40
2023-05-13T10:38:24.109Z,1.47
2023-05-13T10:41:09.496Z,1.30
2023-05-13T10:43:37.853Z,1.30
2023-05-13T10:46:07.680Z,1.10
2023-05-13T10:48:43.542Z,1.20
2023-05-13T10:51:16.409Z,1.20
2023-05-13T10:53:49.296Z,1.00
2023-05-13T10:56:21.851Z,1.20
2023-05-13T10:58:59.726Z,1.30
2023-05-13T11:01:30.029Z,1.10
2023-05-13T11:04:00.286Z,1.40
2023-05-13T11:06:35.108Z,1.20
2023-05-13T11:09:05.698Z,1.33
2023-05-13T11:11:36.798Z,1.40
2023-05-13T11:14:17.757Z,1.10
2023-05-13T11:16:53.150Z,1.20
2023-05-13T11:19:23.629Z,1.07
2023-05-13T11:21:54.024Z,1.10
2023-05-13T11:24:22.938Z,1.20
2023-05-13T11:26:53.106Z,1.20
2023-05-13T11:29:38.999Z,1.20
2023-05-13T11:32:07.899Z,1.00
2023-05-13T11:34:36.089Z,1.37
2023-05-13T11:37:11.629Z,1.30
2023-05-13T11:39:41.217Z,1.20
2023-05-13T11:42:11.855Z,1.40
2023-05-13T11:44:46.704Z,1.50
2023-05-13T11:47:14.641Z,1.20
2023-05-13T11:49:43.711Z,0.90
2023-05-13T11:52:13.153Z,1.37
2023-05-13T11:54:46.445Z,1.40
2023-05-13T11:57:22.237Z,1.27
2023-05-13T11:59:58.600Z,1.27
2023-05-13T12:02:28.228Z,1.40
2023-05-13T12:04:56.801Z,1.50
2023-05-13T12:07:25.542Z,1.23
2023-05-13T12:09:57.510Z,1.17
2023-05-13T12:12:27.868Z,1.30
2023-05-13T12:14:57.291Z,1.20
2023-05-13T12:17:25.341Z,1.30
2023-05-13T12:20:10.231Z,1.27
2023-05-13T12:22:38.916Z,1.30
2023-05-13T12:25:39.043Z,1.80
2023-05-13T12:28:13.331Z,1.10
2023-05-13T12:30:43.067Z,1.50
2023-05-13T12:33:15.844Z,1.20
2023-05-13T12:35:44.165Z,1.30
2023-05-13T12:38:17.263Z,1.30
2023-05-13T12:40:45.646Z,1.17
2023-05-13T12:43:16.676Z,1.47
2023-05-13T12:45:46.498Z,1.20
2023-05-13T12:48:15.307Z,1.40
2023-05-13T12:50:43.156Z,1.10
2023-05-13T12:53:11.082Z,1.60
2023-05-13T12:55:39.949Z,1.30
2023-05-13T12:58:10.927Z,1.20
2023-05-13T13:00:40.297Z,1.40
2023-05-13T13:03:08.714Z,1.20
2023-05-13T13:05:36.803Z,1.00
2023-05-13T13:08:05.984Z,1.20
2023-05-13T13:10:34.113Z,1.30
2023-05-13T13:13:02.335Z,1.10
2023-05-13T13:15:30.606Z,1.30
2023-05-13T13:17:59.878Z,1.20
2023-05-13T13:20:27.747Z,1.17
2023-05-13T13:22:55.620Z,1.27
2023-05-13T13:25:23.799Z,1.30
2023-05-13T13:27:51.821Z,1.50
2023-05-13T13:30:19.736Z,1.20
2023-05-13T13:32:47.639Z,1.40
2023-05-13T13:35:16.965Z,1.33
2023-05-13T13:37:44.804Z,1.03
2023-05-13T13:40:14.612Z,1.50
2023-05-13T13:42:45.298Z,1.20
2023-05-13T13:45:13.771Z,1.40
2023-05-13T13:47:41.824Z,1.60
2023-05-13T13:50:10.783Z,1.23
2023-05-13T13:52:40.166Z,1.27
2023-05-13T13:55:08.966Z,1.50
2023-05-13T13:57:36.805Z,1.40
2023-05-13T14:00:05.212Z,1.10
2023-05-13T14:02:33.228Z,1.53
2023-05-13T14:05:01.207Z,1.67
2023-05-13T14:07:29.317Z,1.50
2023-05-13T14:10:00.889Z,1.40
2023-05-13T14:12:29.341Z,1.20
2023-05-13T14:14:57.281Z,1.27
2023-05-13T14:17:25.430Z,1.40
2023-05-13T14:19:55.792Z,1.30
2023-05-13T14:22:24.488Z,1.30
2023-05-13T14:24:53.447Z,1.40
2023-05-13T14:27:24.488Z,1.00
2023-05-13T14:29:52.991Z,1.50
2023-05-13T14:32:20.949Z,1.20
2023-05-13T14:34:48.795Z,1.30
2023-05-13T14:37:16.661Z,1.43
2023-05-13T14:39:44.988Z,1.30
2023-05-13T14:42:13.920Z,1.30
2023-05-13T14:44:43.160Z,1.17
2023-05-13T14:47:11.943Z,1.47
2023-05-13T14:49:39.773Z,1.50
2023-05-13T14:52:07.647Z,1.10
2023-05-13T14:54:37.826Z,1.40
2023-05-13T14:57:07.587Z,1.13
2023-05-13T14:59:35.936Z,1.40
2023-05-13T15:02:05.983Z,1.30
2023-05-13T15:04:33.930Z,1.23
2023-05-13T15:07:03.618Z,1.50
2023-05-13T15:09:31.530Z,1.20
2023-05-13T15:11:59.397Z,1.37
2023-05-13T15:14:28.245Z,1.63
2023-05-13T15:16:56.408Z,1.30
2023-05-13T15:19:25.716Z,1.47
2023-05-13T15:21:53.770Z,1.20
2023-05-13T15:24:21.608Z,1.27
2023-05-13T15:26:50.376Z,1.33
2023-05-13T15:29:18.671Z,1.33
2023-05-13T15:31:46.609Z,1.20
2023-05-13T15:34:14.425Z,1.20
2023-05-13T15:36:43.602Z,1.40
2023-05-13T15:39:11.912Z,1.10
2023-05-13T15:41:39.763Z,1.37
2023-05-13T15:44:07.642Z,1.00
2023-05-13T15:46:35.970Z,1.23
2023-05-13T15:49:04.215Z,1.53
2023-05-13T15:51:33.161Z,1.17
2023-05-13T15:54:02.488Z,1.40
2023-05-13T15:56:30.336Z,1.60
2023-05-13T15:58:58.277Z,1.00
2023-05-13T16:01:26.094Z,1.43
2023-05-13T16:03:54.039Z,1.37
2023-05-13T16:06:21.942Z,1.17
2023-05-13T16:08:49.909Z,1.30
2023-05-13T16:11:19.067Z,1.37
2023-05-13T16:13:47.195Z,1.23
2023-05-13T16:16:15.123Z,1.10
2023-05-13T16:18:43.251Z,1.30
2023-05-13T16:21:11.169Z,1.47
2023-05-13T16:23:39.094Z,1.27
2023-05-13T16:26:07.522Z,1.43
2023-05-13T16:28:36.859Z,1.40
2023-05-13T16:31:05.048Z,1.50
2023-05-13T16:33:33.936Z,1.33
2023-05-13T16:36:01.799Z,1.30
2023-05-13T16:38:30.365Z,1.40
2023-05-13T16:40:58.319Z,1.40
2023-05-13T16:43:26.154Z,1.30
2023-05-13T16:45:55.397Z,1.20
2023-05-13T16:48:23.321Z,1.03
2023-05-13T16:50:51.931Z,1.10
2023-05-13T16:53:22.163Z,1.20
2023-05-13T16:55:50.501Z,1.33
2023-05-13T16:58:18.523Z,1.20
2023-05-13T17:00:46.489Z,1.47
2023-05-13T17:03:16.225Z,1.50
2023-05-13T17:05:44.703Z,0.97
2023-05-13T17:08:12.559Z,1.40
2023-05-13T17:10:40.536Z,1.10
2023-05-13T17:13:08.458Z,1.20
2023-05-13T17:15:36.379Z,1.37
2023-05-13T17:18:04.525Z,1.33
2023-05-13T17:20:33.792Z,1.27
2023-05-13T17:23:01.692Z,1.20
2023-05-13T17:25:29.576Z,1.20
2023-05-13T17:27:57.423Z,1.30
2023-05-13T17:30:25.450Z,1.30
2023-05-13T17:32:53.400Z,1.20
2023-05-13T17:35:21.366Z,1.40
2023-05-13T17:37:50.624Z,1.40
2023-05-13T17:40:18.447Z,1.23
2023-05-13T17:42:46.272Z,1.33
2023-05-13T17:45:14.160Z,1.30
2023-05-13T17:47:42.197Z,1.23
2023-05-13T17:50:11.189Z,1.50
2023-05-13T17:52:39.190Z,1.20
2023-05-13T17:55:09.697Z,1.40
2023-05-13T17:57:37.613Z,1.30
2023-05-13T18:00:07.016Z,1.57
2023-05-13T18:02:36.113Z,1.33
2023-05-13T18:05:04.102Z,1.67
2023-05-13T18:07:32.000Z,1.40
2023-05-13T18:09:59.866Z,1.17
2023-05-13T18:12:29.715Z,1.10
2023-05-13T18:14:57.590Z,1.30
2023-05-13T18:17:25.503Z,1.37
2023-05-13T18:19:53.466Z,1.50
2023-05-13T18:22:21.284Z,1.17
2023-05-13T18:24:49.159Z,1.20
2023-05-13T18:27:17.008Z,1.47
2023-05-13T18:29:46.233Z,1.30
2023-05-13T18:32:14.198Z,1.30
2023-05-13T18:34:42.043Z,1.30
2023-05-13T18:37:09.946Z,1.30
2023-05-13T18:39:37.817Z,1.40
2023-05-13T18:42:06.180Z,1.60
2023-05-13T18:44:34.240Z,1.63
2023-05-13T18:47:03.430Z,1.20
2023-05-13T18:49:32.281Z,1.40
2023-05-13T18:52:00.433Z,1.40
2023-05-13T18:54:29.231Z,1.43
2023-05-13T18:56:57.092Z,1.50
2023-05-13T18:59:24.922Z,1.40
2023-05-13T19:01:53.220Z,1.50
2023-05-13T19:04:22.668Z,1.30
2023-05-13T19:06:50.666Z,1.40
2023-05-13T19:09:18.502Z,1.40
2023-05-13T19:11:46.344Z,1.40
2023-05-13T19:14:14.161Z,1.63
2023-05-13T19:16:42.059Z,1.37
2023-05-13T19:19:10.205Z,1.30
2023-05-13T19:21:39.519Z,1.47
2023-05-13T19:24:07.476Z,1.40
2023-05-13T19:26:36.398Z,1.50
2023-05-13T19:29:04.456Z,1.20
2023-05-13T19:31:32.455Z,1.30
2023-05-13T19:34:01.414Z,1.63
2023-05-13T19:36:29.354Z,1.73
2023-05-13T19:38:58.565Z,1.50
2023-05-13T19:41:26.626Z,1.30
2023-05-13T19:43:54.467Z,1.37
2023-05-13T19:46:22.467Z,1.40
2023-05-13T19:48:50.414Z,1.20
2023-05-13T19:51:18.387Z,1.17
2023-05-13T19:53:46.216Z,1.50
2023-05-13T19:56:15.472Z,1.27
2023-05-13T19:58:43.360Z,1.37
2023-05-13T20:01:11.911Z,1.50
2023-05-13T20:03:39.949Z,1.30
2023-05-13T20:06:08.063Z,1.43
2023-05-13T20:08:35.979Z,1.37
2023-05-13T20:11:03.913Z,1.53
2023-05-13T20:13:33.135Z,1.60
2023-05-13T20:16:01.188Z,1.60
2023-05-13T20:18:29.159Z,1.73
2023-05-13T20:20:57.067Z,1.77
2023-05-13T20:23:24.973Z,1.57
2023-05-13T20:25:53.901Z,1.43
2023-05-13T20:28:22.223Z,1.40
2023-05-13T20:30:52.977Z,1.63
2023-05-13T20:33:20.942Z,1.53
2023-05-13T20:35:48.990Z,1.17
2023-05-13T20:38:16.984Z,1.37
2023-05-13T20:40:44.899Z,1.50
2023-05-13T20:43:12.885Z,1.50
2023-05-13T20:45:40.917Z,1.20
2023-05-13T20:48:10.577Z,1.87
2023-05-13T20:50:38.625Z,1.30
2023-05-13T20:53:07.018Z,1.57
2023-05-13T20:55:34.918Z,1.40
2023-05-13T20:58:02.829Z,1.40
2023-05-13T21:00:30.747Z,1.93
2023-05-13T21:02:58.683Z,1.60
2023-05-13T21:05:28.105Z,1.73
2023-05-13T21:07:56.050Z,2.10
2023-05-13T21:10:24.567Z,1.70
2023-05-13T21:12:52.764Z,1.83
2023-05-13T21:15:20.623Z,1.60
2023-05-13T21:17:48.544Z,1.40
2023-05-13T21:20:16.759Z,1.60
2023-05-13T21:22:45.962Z,2.00
2023-05-13T21:25:14.097Z,1.70
2023-05-13T21:27:41.918Z,1.70
2023-05-13T21:30:10.876Z,1.70
2023-05-13T21:32:38.744Z,1.53
2023-05-13T21:35:07.696Z,1.50
2023-05-13T21:37:35.592Z,1.70
2023-05-13T21:40:05.539Z,1.87
2023-05-13T21:42:33.379Z,1.67
2023-05-13T21:45:01.204Z,1.70
2023-05-13T21:47:29.497Z,1.57
2023-05-13T21:49:58.214Z,1.83
2023-05-13T21:52:26.118Z,1.77
2023-05-13T21:54:54.011Z,1.60
2023-05-13T21:57:23.236Z,1.83
2023-05-13T21:59:51.158Z,1.70
2023-05-13T22:02:19.098Z,1.73
2023-05-13T22:04:46.985Z,1.40
2023-05-13T22:07:14.805Z,1.63
2023-05-13T22:09:42.637Z,1.67
2023-05-13T22:12:10.737Z,2.00
2023-05-13T22:14:39.959Z,2.00
2023-05-13T22:17:10.204Z,1.57
2023-05-13T22:19:38.569Z,1.77
2023-05-13T22:22:06.618Z,1.73
2023-05-13T22:24:34.516Z,1.63
2023-05-13T22:27:02.379Z,1.87
2023-05-13T22:29:30.441Z,2.03
2023-05-13T22:31:59.743Z,1.53
2023-05-13T22:34:27.998Z,2.07
2023-05-13T22:36:56.094Z,1.63
2023-05-13T22:39:23.949Z,2.03
2023-05-13T22:41:51.814Z,2.00
2023-05-13T22:44:19.875Z,1.70
2023-05-13T22:46:47.804Z,1.70
2023-05-13T22:49:17.046Z,2.10
2023-05-13T22:51:44.971Z,1.57
2023-05-13T22:54:12.809Z,1.80
2023-05-13T22:56:40.685Z,1.60
2023-05-13T22:59:08.561Z,2.10
2023-05-13T23:01:36.526Z,1.87
2023-05-13T23:04:05.637Z,1.70
2023-05-13T23:06:34.936Z,1.93
2023-05-13T23:09:02.852Z,1.60
2023-05-13T23:11:30.778Z,1.97
2023-05-13T23:13:58.700Z,1.43
2023-05-13T23:16:26.659Z,1.73
2023-05-13T23:18:56.147Z,2.03
2023-05-13T23:21:24.044Z,1.43
2023-05-13T23:23:53.236Z,1.70
2023-05-13T23:26:21.988Z,2.03
2023-05-13T23:28:49.878Z,2.00
2023-05-13T23:31:17.735Z,1.60
2023-05-13T23:33:45.614Z,1.83
2023-05-13T23:36:15.695Z,1.70
2023-05-13T23:38:43.556Z,1.83
2023-05-13T23:41:12.759Z,2.10
2023-05-13T23:43:40.616Z,1.50
2023-05-13T23:46:08.528Z,2.00
2023-05-13T23:48:36.524Z,2.23
2023-05-13T23:51:04.554Z,2.30
2023-05-13T23:53:32.440Z,2.30
2023-05-13T23:56:00.320Z,2.33
2023-05-13T23:58:29.563Z,1.80
